Terminal Aerodrome Forecast
Issued by NWS

Home | Current Version | Previous Version | Text Only | Print | Product List | Glossary On
Versions: 1 2 3 4 5 6 7 8 9 10 11 12 13 14
000
FTUS43 KEAX 161100
TAFSTJ
TAF
KSTJ 161123Z 1612/1712 18016KT P6SM SKC
     FM161400 19026G37KT P6SM SCT200
     FM162000 20018G28KT P6SM SCT070
     FM170200 33005KT P6SM BKN060
     FM170600 34007KT P6SM SCT060=

USA.gov is the U.S. government's official web portal to all federal, state and local government web resources and services.